Argenta, Texas
Current Conditions -  °F | °C
As of 8:35 AM on Monday 26 Jan 2015 (Local Time) from KRBO Reporting Station
Clear Clear  
Wind Chill: 50°   Ceiling: Unl
Heat Index: 50°   Visibility: 10mi
Dew Point: 44°   Wind: 3mph
Humidity: 77%   Direction: 300°WNW
Pressure: 30.29"   Gusts: NA
Location:  28.0654°N, 97.7489°W
Report Text: KRBO 261435Z AUTO 30003KT 10SM CLR 10/06 A3029 RMK AO2 T01020064
Loading
Personal Weather Stations






























Interactive Weather Map New forecast layout! Learn more

10-Day Weather Forecast

Advertisements
Track Severe Weather on mobile